Time;durP1;ratioP1;P1;durP2;ratioP2;P2;SDS_P1;SDS_P2;PMS_P1;PMS_P2;Temp;Humidity;BMP_temperature;BMP_pressure;BME280_temperature;BME280_humidity;BME280_pressure;Samples;Min_cycle;Max_cycle;Signal;HPM_P1;HPM_P2
2022/06/20 00:00:58;;;;;;;;;;;;;;;16.80;61.20;101560.34;5071349;28;20435;-76
2022/06/20 00:03:26;;;;;;;;;;;;;;;16.87;60.95;101560.13;5066743;28;19924;-76
2022/06/20 00:05:52;;;;;;;;;;;;;;;16.86;61.18;101564.63;5052815;28;19917;-76
2022/06/20 00:08:19;;;;;;;;;;;;;;;16.82;61.10;101561.16;5066477;28;20014;-76
2022/06/20 00:10:46;;;;;;;;;;;;;;;16.72;61.43;101565.06;5071717;28;19965;-76
2022/06/20 00:13:17;;;;;;;;;;;;;;;16.79;61.51;101563.94;5072568;28;19925;-76
2022/06/20 00:15:43;;;;;;;;;;;;;;;16.77;61.53;101573.84;5072710;28;19924;-76
2022/06/20 00:18:09;;;;;;;;;;;;;;;16.79;61.25;101577.31;5064157;28;19994;-76
2022/06/20 00:20:35;;;;;;;;;;;;;;;16.82;61.16;101571.88;5058634;28;19917;-75
2022/06/20 00:23:02;;;;;;;;;;;;;;;16.87;61.84;101568.16;5061132;28;19982;-76
2022/06/20 00:25:30;;;;;;;;;;;;;;;16.93;62.32;101581.34;5072381;28;19927;-75
2022/06/20 00:27:56;;;;;;;;;;;;;;;16.95;61.32;101588.41;5072142;28;19985;-76
2022/06/20 00:30:22;;;;;;;;;;;;;;;16.98;61.60;101603.47;5072618;28;19932;-76
2022/06/20 00:32:48;;;;;;;;;;;;;;;16.95;61.77;101607.13;5071933;28;19920;-76
2022/06/20 00:35:15;;;;;;;;;;;;;;;16.92;61.69;101604.59;5062230;28;19916;-76
2022/06/20 00:37:41;;;;;;;;;;;;;;;16.91;60.93;101599.22;5063191;28;19917;-76
2022/06/20 00:40:27;;;;;;;;;;;;;;;16.90;61.50;101595.69;5059958;28;20037;-76
2022/06/20 00:42:54;;;;;;;;;;;;;;;16.89;61.62;101603.78;5058681;28;19917;-75
2022/06/20 00:45:21;;;;;;;;;;;;;;;16.90;61.48;101597.50;5072667;28;20397;-76
2022/06/20 00:47:48;;;;;;;;;;;;;;;16.84;61.74;101585.19;5072349;28;20034;-76
2022/06/20 00:50:18;;;;;;;;;;;;;;;16.84;61.19;101585.19;5059776;28;19921;-75
2022/06/20 00:52:49;;;;;;;;;;;;;;;16.81;61.88;101588.84;5057875;28;19917;-76
2022/06/20 00:55:19;;;;;;;;;;;;;;;16.79;62.05;101587.16;5046054;28;19916;-76
2022/06/20 00:57:49;;;;;;;;;;;;;;;16.80;61.78;101589.78;5059630;28;19917;-76
2022/06/20 01:00:18;;;;;;;;;;;;;;;16.78;61.35;101591.63;5055206;28;19924;-76
2022/06/20 01:02:47;;;;;;;;;;;;;;;16.78;61.28;101609.47;5061799;28;19944;-76
2022/06/20 01:10:38;;;;;;;;;;;;;;;16.71;61.81;101632.91;5087021;28;19916;-75
2022/06/20 01:13:06;;;;;;;;;;;;;;;16.71;61.88;101657.00;5077468;28;20008;-76
2022/06/20 01:15:35;;;;;;;;;;;;;;;16.76;62.01;101671.09;5083891;28;20294;-76
2022/06/20 01:18:02;;;;;;;;;;;;;;;16.82;61.71;101670.00;5077094;28;19917;-76
2022/06/20 01:20:31;;;;;;;;;;;;;;;16.86;61.51;101674.34;5080384;28;19927;-76
2022/06/20 01:25:42;;;;;;;;;;;;;;;16.96;61.94;101681.16;5083611;28;19982;-76
2022/06/20 01:28:11;;;;;;;;;;;;;;;17.01;62.15;101673.00;5076643;28;19923;-76
2022/06/20 01:30:39;;;;;;;;;;;;;;;17.06;61.73;101665.66;5074890;28;20026;-76
2022/06/20 01:33:05;;;;;;;;;;;;;;;17.10;61.54;101671.81;5074007;28;19935;-76
2022/06/20 01:38:20;;;;;;;;;;;;;;;17.13;61.51;101660.97;5070698;28;20011;-76
2022/06/20 01:43:34;;;;;;;;;;;;;;;17.18;61.43;101650.13;5070649;28;19931;-76
2022/06/20 01:46:04;;;;;;;;;;;;;;;17.15;61.73;101637.72;5073873;28;20560;-76
2022/06/20 01:48:32;;;;;;;;;;;;;;;17.20;61.51;101634.88;5070231;28;19924;-75
2022/06/20 01:50:58;;;;;;;;;;;;;;;17.20;61.46;101635.72;5072481;28;20015;-76
2022/06/20 01:53:28;;;;;;;;;;;;;;;17.22;61.33;101633.00;5071433;28;19921;-76
2022/06/20 01:55:55;;;;;;;;;;;;;;;17.21;61.16;101632.13;5074366;28;19920;-76
2022/06/20 01:58:29;;;;;;;;;;;;;;;17.18;61.02;101631.38;5072711;28;19964;-76
2022/06/20 02:00:56;;;;;;;;;;;;;;;17.20;60.85;101621.50;5063403;28;20003;-75
2022/06/20 02:03:22;;;;;;;;;;;;;;;17.18;60.90;101624.19;5070790;28;20928;-76
2022/06/20 02:05:51;;;;;;;;;;;;;;;17.17;61.28;101626.94;5072715;28;20042;-76
2022/06/20 02:08:18;;;;;;;;;;;;;;;17.12;61.00;101621.72;5075600;28;20589;-76
2022/06/20 02:11:03;;;;;;;;;;;;;;;17.05;61.14;101620.22;5070817;28;19921;-75
2022/06/20 02:13:31;;;;;;;;;;;;;;;16.98;60.91;101609.72;5071361;28;19916;-76
2022/06/20 02:16:02;;;;;;;;;;;;;;;16.96;60.94;101594.66;5070956;28;19921;-75
2022/06/20 02:18:29;;;;;;;;;;;;;;;16.86;61.06;101595.84;5071407;28;19999;-76
2022/06/20 02:20:58;;;;;;;;;;;;;;;16.85;60.97;101607.47;5068324;28;19923;-76
2022/06/20 02:23:26;;;;;;;;;;;;;;;16.77;61.19;101608.63;5073395;28;19928;-76
2022/06/20 02:25:53;;;;;;;;;;;;;;;16.78;61.07;101612.16;5087294;28;19962;-76
2022/06/20 02:28:22;;;;;;;;;;;;;;;16.75;61.36;101617.63;5103459;28;19983;-75
2022/06/20 02:30:48;;;;;;;;;;;;;;;16.78;61.03;101613.03;5090852;28;20378;-75
2022/06/20 02:33:16;;;;;;;;;;;;;;;16.78;61.46;101612.16;5090759;28;20352;-75
2022/06/20 02:35:43;;;;;;;;;;;;;;;16.77;61.36;101618.44;5080758;28;19923;-76
2022/06/20 02:38:09;;;;;;;;;;;;;;;16.77;61.20;101607.72;5077302;28;20431;-76
2022/06/20 02:40:41;;;;;;;;;;;;;;;16.74;61.04;101607.84;5076921;28;20297;-76
2022/06/20 02:43:13;;;;;;;;;;;;;;;16.74;61.16;101606.03;5078624;28;20355;-76
2022/06/20 02:45:39;;;;;;;;;;;;;;;16.78;60.65;101601.47;5076530;28;20386;-76
2022/06/20 02:48:07;;;;;;;;;;;;;;;16.72;61.04;101607.88;5078277;28;19937;-76
2022/06/20 02:50:36;;;;;;;;;;;;;;;16.68;61.16;101605.38;5076196;28;20019;-76
2022/06/20 02:53:05;;;;;;;;;;;;;;;16.60;60.50;101605.63;5076064;28;19965;-76
2022/06/20 02:55:33;;;;;;;;;;;;;;;16.64;60.62;101610.81;5074500;28;19916;-76
2022/06/20 02:58:03;;;;;;;;;;;;;;;16.60;60.46;101597.63;5080250;28;20585;-76
2022/06/20 03:00:35;;;;;;;;;;;;;;;16.45;60.49;101599.84;5075397;28;20401;-76
2022/06/20 03:03:05;;;;;;;;;;;;;;;16.52;60.49;101599.66;5075090;28;20322;-76
2022/06/20 03:05:31;;;;;;;;;;;;;;;16.46;60.61;101585.56;5075230;28;19920;-76
2022/06/20 03:07:57;;;;;;;;;;;;;;;16.47;60.52;101581.97;5076112;28;19920;-76
2022/06/20 03:10:25;;;;;;;;;;;;;;;16.42;60.74;101583.88;5074157;28;19970;-76
2022/06/20 03:12:53;;;;;;;;;;;;;;;16.31;61.14;101592.28;5073488;28;20406;-76
2022/06/20 03:15:19;;;;;;;;;;;;;;;16.25;61.01;101589.81;5074245;28;19978;-76
2022/06/20 03:17:47;;;;;;;;;;;;;;;16.23;60.98;101590.78;5074925;28;19959;-76
2022/06/20 03:20:14;;;;;;;;;;;;;;;16.19;60.82;101587.31;5078114;28;19943;-76
2022/06/20 03:22:46;;;;;;;;;;;;;;;16.15;60.92;101586.53;5086524;28;19912;-76
2022/06/20 03:25:13;;;;;;;;;;;;;;;16.24;60.95;101581.84;5083106;28;19946;-76
2022/06/20 03:27:40;;;;;;;;;;;;;;;16.24;61.05;101584.50;5077362;28;19963;-76
2022/06/20 03:30:26;;;;;;;;;;;;;;;16.11;61.23;101576.00;5076271;28;19919;-76
2022/06/20 03:32:52;;;;;;;;;;;;;;;16.11;61.11;101568.84;5083475;28;19920;-76
2022/06/20 03:35:19;;;;;;;;;;;;;;;16.03;61.54;101573.56;5073056;28;19939;-76
2022/06/20 03:37:45;;;;;;;;;;;;;;;16.10;61.39;101576.91;5075959;28;19916;-76
2022/06/20 03:40:12;;;;;;;;;;;;;;;16.04;61.61;101571.75;5077256;28;19923;-76
2022/06/20 03:42:38;;;;;;;;;;;;;;;16.13;61.34;101560.78;5073915;28;19965;-76
2022/06/20 03:45:05;;;;;;;;;;;;;;;16.09;61.62;101562.69;5073440;28;19920;-77
2022/06/20 03:47:36;;;;;;;;;;;;;;;16.08;61.67;101562.72;5067588;28;19939;-76
2022/06/20 03:52:47;;;;;;;;;;;;;;;16.15;61.29;101586.53;5088358;28;19929;-77
2022/06/20 03:58:04;;;;;;;;;;;;;;;16.21;61.28;101590.81;5089333;27;19921;-76
2022/06/20 04:00:35;;;;;;;;;;;;;;;16.17;61.43;101600.75;5092658;28;19969;-76
2022/06/20 04:03:09;;;;;;;;;;;;;;;16.17;61.43;101590.06;5098742;28;19930;-78
2022/06/20 04:05:39;;;;;;;;;;;;;;;16.22;61.02;101597.03;5088207;28;19916;-77
2022/06/20 04:08:09;;;;;;;;;;;;;;;16.23;60.78;101605.00;5093836;28;19920;-77
2022/06/20 04:11:02;;;;;;;;;;;;;;;16.22;61.27;101602.41;5085382;28;20404;-77
2022/06/20 04:13:33;;;;;;;;;;;;;;;16.24;60.93;101603.22;5077260;28;19917;-77
2022/06/20 04:16:04;;;;;;;;;;;;;;;16.20;60.98;101609.56;5097601;28;19920;-77
2022/06/20 04:18:36;;;;;;;;;;;;;;;16.24;60.99;101604.09;5088945;28;19916;-77
2022/06/20 04:21:22;;;;;;;;;;;;;;;16.21;61.30;101611.34;5086720;28;19920;-77
2022/06/20 04:24:09;;;;;;;;;;;;;;;16.26;60.96;101604.03;5093796;28;19920;-76
2022/06/20 04:26:37;;;;;;;;;;;;;;;16.25;61.35;101607.63;5091891;28;19916;-76
2022/06/20 04:29:23;;;;;;;;;;;;;;;16.25;60.80;101612.97;5088699;28;19944;-77
2022/06/20 04:31:52;;;;;;;;;;;;;;;16.25;61.20;101621.88;5092564;28;19920;-76
2022/06/20 04:34:24;;;;;;;;;;;;;;;16.29;60.75;101625.34;5086378;28;20081;-76
2022/06/20 04:39:54;;;;;;;;;;;;;;;16.31;60.87;101635.06;5092474;27;20451;-76
2022/06/20 04:42:24;;;;;;;;;;;;;;;16.29;60.60;101642.25;5068822;28;19916;-76
2022/06/20 04:44:56;;;;;;;;;;;;;;;16.25;60.47;101645.06;5074252;28;20439;-76
2022/06/20 04:47:29;;;;;;;;;;;;;;;16.28;60.45;101644.97;5071564;28;19916;-76
2022/06/20 04:49:56;;;;;;;;;;;;;;;16.31;60.69;101634.19;5075803;28;19917;-76
2022/06/20 04:52:24;;;;;;;;;;;;;;;16.29;60.71;101628.88;5076414;28;19923;-76
2022/06/20 04:54:50;;;;;;;;;;;;;;;16.33;60.35;101632.34;5072680;28;19928;-75
2022/06/20 04:57:16;;;;;;;;;;;;;;;16.37;60.40;101633.13;5074004;28;20391;-76
2022/06/20 04:59:43;;;;;;;;;;;;;;;16.40;60.25;101628.56;5073901;28;19916;-76
2022/06/20 05:02:22;;;;;;;;;;;;;;;16.47;60.33;101635.47;5067178;28;19920;-76
2022/06/20 05:04:50;;;;;;;;;;;;;;;16.43;59.94;101627.56;5072361;28;19924;-76
2022/06/20 05:07:20;;;;;;;;;;;;;;;16.55;59.73;101627.19;5066089;28;20012;-76
2022/06/20 05:09:50;;;;;;;;;;;;;;;16.60;59.88;101629.72;5071023;28;19928;-76
2022/06/20 05:12:21;;;;;;;;;;;;;;;16.63;59.89;101634.94;5068395;28;19954;-76
2022/06/20 05:14:54;;;;;;;;;;;;;;;16.73;59.55;101627.50;5068656;28;19916;-76
2022/06/20 05:17:23;;;;;;;;;;;;;;;16.76;59.85;101627.38;5072374;28;19917;-76
2022/06/20 05:19:52;;;;;;;;;;;;;;;16.90;59.90;101626.94;5072625;28;19916;-76
2022/06/20 05:22:24;;;;;;;;;;;;;;;16.92;59.31;101633.13;5065941;28;19917;-76
2022/06/20 05:24:51;;;;;;;;;;;;;;;16.91;58.93;101634.03;5071349;28;20066;-76
2022/06/20 05:27:19;;;;;;;;;;;;;;;16.95;59.10;101633.03;5067227;28;19999;-76
2022/06/20 05:29:46;;;;;;;;;;;;;;;17.01;59.04;101638.19;5068322;28;19925;-75
2022/06/20 05:32:15;;;;;;;;;;;;;;;17.06;59.05;101641.56;5070392;28;19916;-76
2022/06/20 05:40:18;;;;;;;;;;;;;;;16.93;58.77;101645.59;5046659;28;20395;-77
2022/06/20 05:43:00;;;;;;;;;;;;;;;16.90;59.04;101643.88;5026951;28;19922;-77
2022/06/20 05:45:27;;;;;;;;;;;;;;;17.00;58.92;101654.28;5029636;28;20371;-76
2022/06/20 05:47:54;;;;;;;;;;;;;;;16.97;58.96;101649.91;5027004;28;19913;-77
2022/06/20 05:53:00;;;;;;;;;;;;;;;17.05;58.77;101652.34;5068149;28;19921;-75
2022/06/20 05:55:30;;;;;;;;;;;;;;;17.06;58.54;101659.44;5051700;28;19920;-75
2022/06/20 05:57:58;;;;;;;;;;;;;;;17.18;58.76;101671.53;5053921;28;19920;-75
2022/06/20 06:00:27;;;;;;;;;;;;;;;17.31;58.46;101672.88;5057156;28;19917;-75
2022/06/20 06:02:55;;;;;;;;;;;;;;;17.36;57.46;101680.72;5055623;28;19923;-75
2022/06/20 06:05:28;;;;;;;;;;;;;;;17.47;57.63;101678.56;5046427;28;19928;-75
2022/06/20 06:07:58;;;;;;;;;;;;;;;17.61;57.30;101678.06;5040329;28;19939;-75
2022/06/20 06:18:58;;;;;;;;;;;;;;;17.62;56.40;101686.03;5089086;28;19916;-75
2022/06/20 06:21:26;;;;;;;;;;;;;;;17.64;55.90;101699.38;5085853;28;20447;-74
2022/06/20 06:23:52;;;;;;;;;;;;;;;17.75;55.74;101686.44;5087685;28;19916;-74
2022/06/20 06:26:18;;;;;;;;;;;;;;;17.74;55.41;101683.84;5088822;28;19919;-75
2022/06/20 06:28:46;;;;;;;;;;;;;;;17.75;55.69;101691.81;5086158;28;20314;-75
2022/06/20 06:31:17;;;;;;;;;;;;;;;17.89;55.79;101688.63;5086810;28;19962;-75
2022/06/20 06:33:49;;;;;;;;;;;;;;;17.89;55.64;101693.97;5088490;28;19923;-75
2022/06/20 06:36:18;;;;;;;;;;;;;;;18.00;55.38;101687.41;5080949;28;19917;-75
2022/06/20 06:38:48;;;;;;;;;;;;;;;18.06;55.18;101701.44;5086491;28;19969;-75
2022/06/20 06:41:19;;;;;;;;;;;;;;;18.25;55.73;101698.91;5084354;28;20398;-75
2022/06/20 06:43:46;;;;;;;;;;;;;;;18.21;53.85;101705.34;5086814;28;20038;-75
2022/06/20 06:46:14;;;;;;;;;;;;;;;18.28;53.45;101700.63;5087880;28;20374;-75
2022/06/20 06:49:00;;;;;;;;;;;;;;;18.29;53.98;101701.50;5084119;28;20436;-75
2022/06/20 06:51:33;;;;;;;;;;;;;;;18.22;53.23;101711.59;5083451;28;20413;-76
2022/06/20 06:54:02;;;;;;;;;;;;;;;18.11;53.51;101710.16;5088058;28;20416;-75
2022/06/20 06:56:32;;;;;;;;;;;;;;;18.01;53.38;101714.13;5087968;28;19913;-75
2022/06/20 06:59:05;;;;;;;;;;;;;;;17.92;54.00;101717.16;5086215;28;19979;-75
2022/06/20 07:01:35;;;;;;;;;;;;;;;17.87;53.87;101714.63;5085826;28;19980;-76
2022/06/20 07:04:05;;;;;;;;;;;;;;;17.99;53.26;101709.78;5086941;28;19917;-75
2022/06/20 07:06:35;;;;;;;;;;;;;;;17.98;52.52;101716.06;5087958;28;20324;-75
2022/06/20 07:09:08;;;;;;;;;;;;;;;18.08;52.04;101720.13;5088098;28;20553;-76
2022/06/20 07:11:35;;;;;;;;;;;;;;;18.23;52.87;101711.53;5087304;28;20293;-77
2022/06/20 07:14:04;;;;;;;;;;;;;;;18.22;52.24;101719.63;5085429;28;20435;-77
2022/06/20 07:16:34;;;;;;;;;;;;;;;18.29;52.76;101725.63;5082339;28;20047;-76
2022/06/20 07:19:01;;;;;;;;;;;;;;;18.28;52.34;101732.81;5087598;28;19931;-75
2022/06/20 07:21:28;;;;;;;;;;;;;;;18.35;52.45;101720.88;5087123;28;20477;-77
2022/06/20 07:23:56;;;;;;;;;;;;;;;18.49;52.75;101719.47;5076378;28;19916;-75
2022/06/20 07:26:24;;;;;;;;;;;;;;;18.63;52.34;101711.78;5065194;28;19951;-75
2022/06/20 07:28:53;;;;;;;;;;;;;;;18.81;52.04;101709.28;5065115;28;19951;-76
2022/06/20 07:31:22;;;;;;;;;;;;;;;18.90;51.50;101725.91;5061853;28;19913;-75
2022/06/20 07:36:31;;;;;;;;;;;;;;;19.16;49.41;101720.41;5088504;27;19912;-75
2022/06/20 07:39:01;;;;;;;;;;;;;;;19.23;49.35;101729.94;5080876;28;20378;-76
2022/06/20 07:41:33;;;;;;;;;;;;;;;19.24;49.01;101729.88;5081367;28;19916;-75
2022/06/20 07:44:04;;;;;;;;;;;;;;;19.19;50.00;101739.06;5087737;28;19985;-75
2022/06/20 07:46:34;;;;;;;;;;;;;;;19.16;50.30;101733.81;5082463;28;20304;-76
2022/06/20 07:49:03;;;;;;;;;;;;;;;19.22;50.34;101730.88;5072997;28;19912;-75
2022/06/20 07:51:32;;;;;;;;;;;;;;;19.20;49.96;101730.97;5078615;28;19969;-75
2022/06/20 07:54:03;;;;;;;;;;;;;;;19.29;49.70;101721.63;5076159;28;19920;-75
2022/06/20 07:56:34;;;;;;;;;;;;;;;19.24;48.14;101719.13;5075806;28;20011;-75
2022/06/20 07:59:04;;;;;;;;;;;;;;;19.47;49.17;101721.78;5085366;28;19970;-75
2022/06/20 08:01:51;;;;;;;;;;;;;;;19.60;48.99;101732.84;5087365;28;19912;-75
2022/06/20 08:04:21;;;;;;;;;;;;;;;19.63;48.42;101722.84;5087381;28;19988;-76
2022/06/20 08:06:53;;;;;;;;;;;;;;;19.96;48.63;101716.03;5086063;28;19956;-76
2022/06/20 08:09:22;;;;;;;;;;;;;;;20.18;47.79;101716.78;5087452;28;19927;-75
2022/06/20 08:11:54;;;;;;;;;;;;;;;20.43;47.65;101723.72;5067427;28;20282;-74
2022/06/20 08:14:24;;;;;;;;;;;;;;;20.52;46.10;101725.09;5068130;28;20255;-74
2022/06/20 08:16:54;;;;;;;;;;;;;;;20.65;45.92;101728.94;5067478;28;19913;-73
2022/06/20 08:19:20;;;;;;;;;;;;;;;20.67;46.31;101723.47;5067678;28;20007;-73
2022/06/20 08:21:47;;;;;;;;;;;;;;;20.86;46.18;101726.19;5082710;28;19917;-73
2022/06/20 08:24:19;;;;;;;;;;;;;;;20.89;44.97;101722.47;5078445;28;19916;-72
2022/06/20 08:26:50;;;;;;;;;;;;;;;20.89;43.59;101739.50;5074500;28;19985;-73
2022/06/20 08:29:21;;;;;;;;;;;;;;;20.87;43.97;101727.06;5077075;28;19916;-73
2022/06/20 08:31:50;;;;;;;;;;;;;;;20.93;44.86;101730.31;5075035;28;19923;-73
2022/06/20 08:34:24;;;;;;;;;;;;;;;20.92;44.19;101739.38;5079163;28;20035;-73
2022/06/20 08:36:57;;;;;;;;;;;;;;;20.94;44.23;101734.75;5095823;28;19969;-73
2022/06/20 08:42:21;;;;;;;;;;;;;;;20.62;43.87;101745.25;5067376;28;19916;-72
2022/06/20 08:45:07;;;;;;;;;;;;;;;20.61;42.86;101740.81;5068046;28;19916;-73
2022/06/20 08:47:53;;;;;;;;;;;;;;;20.73;43.72;101742.06;5067783;28;19920;-73
2022/06/20 08:50:39;;;;;;;;;;;;;;;20.87;44.44;101744.06;5067705;28;20359;-73
2022/06/20 08:53:25;;;;;;;;;;;;;;;20.90;43.37;101740.34;5064690;28;20378;-73
2022/06/20 08:56:02;;;;;;;;;;;;;;;20.92;43.04;101749.25;5067033;28;19917;-73
2022/06/20 08:58:48;;;;;;;;;;;;;;;20.88;41.50;101758.44;5067444;28;19967;-72
2022/06/20 09:04:07;;;;;;;;;;;;;;;20.85;40.69;101757.63;5088191;27;19916;-73
2022/06/20 09:06:53;;;;;;;;;;;;;;;21.00;40.33;101741.69;5088696;28;19916;-74
2022/06/20 09:09:30;;;;;;;;;;;;;;;21.10;41.38;101750.16;5086858;28;19970;-74
2022/06/20 09:17:32;;;;;;;;;;;;;;;21.26;38.81;101759.22;5129034;27;19911;-74
2022/06/20 09:20:18;;;;;;;;;;;;;;;21.21;40.14;101763.09;5128375;27;19916;-74
2022/06/20 09:22:52;;;;;;;;;;;;;;;21.40;40.92;101766.59;5126456;27;19976;-74
2022/06/20 09:25:38;;;;;;;;;;;;;;;21.39;38.65;101764.84;5128920;27;19919;-74
2022/06/20 09:28:15;;;;;;;;;;;;;;;21.48;40.59;101777.00;5122842;27;19911;-74
2022/06/20 09:31:01;;;;;;;;;;;;;;;21.54;41.30;101763.19;5128054;27;19912;-75
2022/06/20 09:33:47;;;;;;;;;;;;;;;21.57;40.37;101756.78;5127181;27;20356;-74
2022/06/20 09:36:33;;;;;;;;;;;;;;;21.48;40.13;101777.00;5128723;28;19955;-74
2022/06/20 09:39:06;;;;;;;;;;;;;;;21.47;39.81;101772.53;5136055;27;19922;-74
2022/06/20 09:41:36;;;;;;;;;;;;;;;21.54;40.72;101760.50;5122140;27;20007;-74
2022/06/20 09:44:10;;;;;;;;;;;;;;;21.55;40.85;101775.72;5128565;27;20305;-74
2022/06/20 09:49:23;;;;;;;;;;;;;;;21.72;41.18;101765.91;5088697;27;19938;-74
2022/06/20 09:51:49;;;;;;;;;;;;;;;;;;5087138;28;19946;-74
2022/06/20 09:54:35;;;;;;;;;;;;;;;21.75;41.08;101774.72;5085664;28;19920;-74
2022/06/20 09:57:07;;;;;;;;;;;;;;;21.55;40.23;101775.72;5084078;28;20366;-74
2022/06/20 09:59:54;;;;;;;;;;;;;;;21.51;39.61;101771.44;5088553;28;19912;-74
2022/06/20 10:05:19;;;;;;;;;;;;;;;21.59;39.53;101774.63;5087816;28;19916;-74
2022/06/20 10:07:51;;;;;;;;;;;;;;;21.80;40.06;101774.47;5065140;28;20379;-74
2022/06/20 10:10:36;;;;;;;;;;;;;;;21.92;39.53;101779.22;5079814;28;19912;-74
2022/06/20 10:13:07;;;;;;;;;;;;;;;22.03;39.80;101792.16;5080968;28;19971;-74
2022/06/20 10:15:38;;;;;;;;;;;;;;;21.98;38.83;101795.09;5077950;28;19917;-74
2022/06/20 10:20:51;;;;;;;;;;;;;;;22.23;38.92;101801.88;5087941;27;19913;-73
2022/06/20 10:23:43;;;;;;;;;;;;;;;22.32;37.82;101805.00;5088270;28;19916;-74
2022/06/20 10:26:20;;;;;;;;;;;;;;;22.62;39.58;101810.59;5087587;28;20267;-74
2022/06/20 10:28:49;;;;;;;;;;;;;;;22.90;39.10;101809.03;5087137;28;19923;-75
2022/06/20 10:31:25;;;;;;;;;;;;;;;22.77;38.04;101811.56;5086553;28;19962;-75
2022/06/20 10:39:42;;;;;;;;;;;;;;;22.71;37.90;101817.31;5087724;28;19962;-74
2022/06/20 10:45:10;;;;;;;;;;;;;;;23.08;37.71;101818.81;5085991;27;19912;-74
2022/06/20 10:47:56;;;;;;;;;;;;;;;23.27;38.49;101823.19;5085910;28;20433;-74
2022/06/20 10:50:27;;;;;;;;;;;;;;;23.07;37.74;101832.41;5086190;28;20511;-74
2022/06/20 10:53:13;;;;;;;;;;;;;;;22.95;38.44;101828.56;5079701;28;20352;-74
2022/06/20 10:55:45;;;;;;;;;;;;;;;22.76;38.96;101839.53;5088017;28;19917;-74
2022/06/20 10:58:18;;;;;;;;;;;;;;;22.77;38.65;101825.09;5086684;28;20381;-74
2022/06/20 11:00:48;;;;;;;;;;;;;;;22.65;38.58;101826.63;5086402;28;20015;-74
2022/06/20 11:03:34;;;;;;;;;;;;;;;22.61;38.50;101834.03;5087849;28;19925;-74
2022/06/20 11:06:10;;;;;;;;;;;;;;;22.81;38.45;101820.38;5083992;28;20063;-74
2022/06/20 11:14:01;;;;;;;;;;;;;;;23.42;37.36;101832.22;5065587;28;19916;-74
2022/06/20 11:16:44;;;;;;;;;;;;;;;23.45;37.33;101837.44;5067989;28;20422;-74
2022/06/20 11:19:23;;;;;;;;;;;;;;;23.56;37.87;101837.72;5068392;28;19943;-74
2022/06/20 11:27:33;;;;;;;;;;;;;;;24.04;35.95;101848.38;5087883;27;19920;-73
2022/06/20 11:32:48;;;;;;;;;;;;;;;23.75;35.46;101852.81;5087731;27;19913;-74
2022/06/20 11:35:24;;;;;;;;;;;;;;;23.89;35.05;101838.47;5087730;28;19917;-74
2022/06/20 11:37:55;;;;;;;;;;;;;;;24.13;35.55;101849.66;5088275;28;19970;-74
2022/06/20 11:45:48;;;;;;;;;;;;;;;23.81;35.73;101857.84;5063891;28;19921;-74
2022/06/20 11:48:22;;;;;;;;;;;;;;;23.71;36.40;101851.25;5067698;28;19923;-73
2022/06/20 11:50:53;;;;;;;;;;;;;;;23.79;35.92;101853.50;5054061;28;20456;-74
2022/06/20 11:53:23;;;;;;;;;;;;;;;23.88;36.18;101859.25;5047897;28;19921;-74
2022/06/20 11:55:51;;;;;;;;;;;;;;;23.98;36.13;101856.88;5046567;28;19917;-74
2022/06/20 11:58:29;;;;;;;;;;;;;;;24.05;35.46;101862.78;5045118;28;19952;-74
2022/06/20 12:01:00;;;;;;;;;;;;;;;24.11;35.69;101865.09;5046259;28;19913;-74
2022/06/20 12:06:31;;;;;;;;;;;;;;;24.33;35.96;101871.94;5087221;27;19912;-74
2022/06/20 12:09:00;;;;;;;;;;;;;;;24.18;35.19;101871.91;5087882;28;20283;-74
2022/06/20 12:17:08;;;;;;;;;;;;;;;24.22;36.89;101865.34;5087990;27;19966;-74
2022/06/20 12:28:18;;;;;;;;;;;;;;;24.54;37.55;101861.59;5072877;27;19917;-74
2022/06/20 12:30:45;;;;;;;;;;;;;;;24.40;35.71;101867.88;5067462;28;19940;-73
2022/06/20 12:33:11;;;;;;;;;;;;;;;24.63;36.22;101863.69;5067835;28;19913;-74
2022/06/20 12:35:41;;;;;;;;;;;;;;;24.72;36.44;101873.13;5068193;28;19916;-74
2022/06/20 12:38:11;;;;;;;;;;;;;;;24.62;35.61;101861.09;5067014;28;20452;-74
2022/06/20 12:40:42;;;;;;;;;;;;;;;24.58;36.53;101864.97;5071133;28;19922;-74
2022/06/20 12:43:12;;;;;;;;;;;;;;;24.80;36.45;101868.09;5068125;28;20298;-74
2022/06/20 12:45:48;;;;;;;;;;;;;;;25.01;36.34;101864.94;5067767;28;19912;-74
2022/06/20 12:48:34;;;;;;;;;;;;;;;24.92;35.99;101862.84;5067493;28;19982;-74
2022/06/20 12:53:54;;;;;;;;;;;;;;;24.77;36.69;101862.84;5088619;27;19912;-74
2022/06/20 12:56:40;;;;;;;;;;;;;;;24.66;36.70;101874.41;5086949;28;19927;-74
2022/06/20 13:07:33;;;;;;;;;;;;;;;24.97;35.61;101876.97;5067536;28;19916;-74
2022/06/20 13:10:19;;;;;;;;;;;;;;;24.79;35.72;101869.06;5063389;28;20297;-74
2022/06/20 13:13:05;;;;;;;;;;;;;;;24.53;35.42;101867.97;5044009;28;19921;-74
2022/06/20 13:15:38;;;;;;;;;;;;;;;24.32;36.25;101889.16;5046181;28;19936;-74
2022/06/20 13:18:24;;;;;;;;;;;;;;;24.16;36.43;101878.38;5047506;28;19913;-74
2022/06/20 13:20:55;;;;;;;;;;;;;;;24.22;37.25;101867.16;5046447;28;20571;-74
2022/06/20 13:28:56;;;;;;;;;;;;;;;24.49;35.59;101859.16;5086266;27;19917;-74
2022/06/20 13:31:26;;;;;;;;;;;;;;;24.55;35.83;101875.03;5070246;28;19923;-74
2022/06/20 13:36:40;;;;;;;;;;;;;;;24.75;35.91;101870.22;5067167;27;20357;-74
2022/06/20 13:39:26;;;;;;;;;;;;;;;24.79;35.06;101873.63;5060444;28;21642;-74
2022/06/20 13:41:56;;;;;;;;;;;;;;;25.04;34.80;101867.47;5066610;28;19965;-74
2022/06/20 13:47:09;;;;;;;;;;;;;;;24.81;33.64;101875.25;5103805;27;19977;-74
2022/06/20 13:49:41;;;;;;;;;;;;;;;24.58;33.42;101871.25;5091927;28;19916;-74
2022/06/20 13:57:31;;;;;;;;;;;;;;;24.86;34.50;101881.25;5072669;27;19917;-74
2022/06/20 14:00:17;;;;;;;;;;;;;;;24.83;34.36;101872.44;5084333;28;20386;-74
2022/06/20 14:02:46;;;;;;;;;;;;;;;24.83;34.55;101870.59;5076539;28;20654;-75
2022/06/20 14:05:27;;;;;;;;;;;;;;;24.73;34.12;101874.88;5076198;28;19920;-74
2022/06/20 14:08:04;;;;;;;;;;;;;;;24.60;34.69;101882.88;5072829;28;20615;-75
2022/06/20 14:10:33;;;;;;;;;;;;;;;24.74;35.02;101887.44;5076279;28;19920;-74
2022/06/20 14:13:01;;;;;;;;;;;;;;;24.66;34.47;101896.06;5082067;28;19925;-74
2022/06/20 14:15:31;;;;;;;;;;;;;;;24.60;34.19;101893.72;5082657;28;19921;-74
2022/06/20 14:17:59;;;;;;;;;;;;;;;24.46;34.42;101888.28;5074196;28;19946;-74
2022/06/20 14:20:30;;;;;;;;;;;;;;;24.35;35.46;101895.25;5068180;28;19924;-74
2022/06/20 14:22:58;;;;;;;;;;;;;;;24.31;35.24;101884.69;5067528;28;19917;-74
2022/06/20 14:25:44;;;;;;;;;;;;;;;24.15;35.29;101891.06;5074459;28;19921;-74
2022/06/20 14:28:20;;;;;;;;;;;;;;;24.06;35.50;101897.91;5077172;28;20369;-74
2022/06/20 14:30:47;;;;;;;;;;;;;;;24.08;36.36;101894.25;5080848;28;19999;-74
2022/06/20 14:33:16;;;;;;;;;;;;;;;24.48;36.28;101887.22;5075814;28;19981;-74
2022/06/20 14:38:29;;;;;;;;;;;;;;;24.46;35.35;101889.16;5065189;28;19925;-74
2022/06/20 14:41:01;;;;;;;;;;;;;;;24.43;35.85;101888.47;5049210;28;19921;-73
2022/06/20 14:43:45;;;;;;;;;;;;;;;24.66;36.26;101882.53;5043313;28;19959;-73
2022/06/20 14:46:16;;;;;;;;;;;;;;;25.08;34.48;101878.97;5041157;28;20557;-75
2022/06/20 14:48:49;;;;;;;;;;;;;;;25.46;34.37;101879.19;5041585;28;19994;-74
2022/06/20 14:51:20;;;;;;;;;;;;;;;25.72;33.78;101876.56;5041092;28;20548;-75
2022/06/20 14:53:52;;;;;;;;;;;;;;;25.89;33.06;101879.97;5040812;28;19948;-74
2022/06/20 14:56:24;;;;;;;;;;;;;;;26.09;32.17;101882.19;5047231;28;20004;-74
2022/06/20 14:58:55;;;;;;;;;;;;;;;26.26;31.53;101877.44;5042613;28;19925;-75
2022/06/20 15:01:30;;;;;;;;;;;;;;;26.25;31.71;101875.69;5039301;28;19921;-74
2022/06/20 15:03:59;;;;;;;;;;;;;;;26.45;32.44;101868.84;5033851;28;20051;-75
2022/06/20 15:06:32;;;;;;;;;;;;;;;26.34;32.25;101875.03;5039135;28;20004;-75
2022/06/20 15:09:14;;;;;;;;;;;;;;;25.94;32.44;101866.94;5047373;28;19920;-75
2022/06/20 15:11:46;;;;;;;;;;;;;;;25.81;33.06;101867.78;5047089;28;19917;-75
2022/06/20 15:14:21;;;;;;;;;;;;;;;25.63;32.92;101879.91;5047988;28;19921;-75
2022/06/20 15:16:54;;;;;;;;;;;;;;;25.50;32.69;101866.28;5045493;28;20011;-75